Time;durP1;ratioP1;P1;durP2;ratioP2;P2;SDS_P1;SDS_P2;PMS_P1;PMS_P2;Temp;Humidity;BMP_temperature;BMP_pressure;BME280_temperature;BME280_humidity;BME280_pressure;Samples;Min_cycle;Max_cycle;Signal;HPM_P1;HPM_P2
2023/10/04 00:00:21;;;;;;;4.57;1.35;;;11.10;99.90;;;;;;5043152;28;20040;-78
2023/10/04 00:02:52;;;;;;;4.28;0.98;;;11.10;99.90;;;;;;5028469;28;20029;-78
2023/10/04 00:05:19;;;;;;;6.05;1.50;;;11.20;99.90;;;;;;5046449;28;20047;-79
2023/10/04 00:07:49;;;;;;;3.95;1.33;;;11.20;99.90;;;;;;5047101;28;20475;-78
2023/10/04 00:10:21;;;;;;;3.35;1.00;;;11.30;99.90;;;;;;5045703;28;20192;-78
2023/10/04 00:12:47;;;;;;;5.93;1.20;;;11.30;99.90;;;;;;5037676;28;20120;-78
2023/10/04 00:15:13;;;;;;;9.32;1.33;;;11.30;99.90;;;;;;5045736;28;20119;-78
2023/10/04 00:17:44;;;;;;;6.45;1.08;;;11.40;99.90;;;;;;5043558;28;20033;-78
2023/10/04 00:20:13;;;;;;;7.20;1.13;;;11.40;99.90;;;;;;5044376;28;20041;-78
2023/10/04 00:22:40;;;;;;;8.43;1.33;;;11.50;99.90;;;;;;5028715;28;20037;-78
2023/10/04 00:25:16;;;;;;;5.90;1.05;;;11.50;99.90;;;;;;5026821;28;20077;-78
2023/10/04 00:27:42;;;;;;;7.78;1.13;;;11.60;99.90;;;;;;5040760;28;20047;-78
2023/10/04 00:30:17;;;;;;;10.63;1.60;;;11.50;99.90;;;;;;5045986;28;20090;-77
2023/10/04 00:32:44;;;;;;;7.28;1.48;;;11.60;99.90;;;;;;5042621;28;20466;-78
2023/10/04 00:35:17;;;;;;;10.48;1.92;;;11.60;99.90;;;;;;5053033;28;20072;-79
2023/10/04 00:37:51;;;;;;;5.13;1.20;;;11.60;99.90;;;;;;5057740;28;20118;-77
2023/10/04 00:40:22;;;;;;;5.88;1.10;;;11.60;99.90;;;;;;5027563;28;20041;-79
2023/10/04 00:42:51;;;;;;;12.80;1.67;;;11.60;99.90;;;;;;5043448;28;20056;-78
2023/10/04 00:45:19;;;;;;;4.15;1.10;;;11.70;99.90;;;;;;5047261;28;20045;-78
2023/10/04 00:47:47;;;;;;;5.97;1.15;;;11.60;99.90;;;;;;5031659;28;20507;-78
2023/10/04 00:50:18;;;;;;;3.42;0.80;;;11.60;99.90;;;;;;5034972;28;20037;-78
2023/10/04 00:52:48;;;;;;;4.53;1.05;;;11.60;99.90;;;;;;5045619;28;20056;-79
2023/10/04 00:55:17;;;;;;;12.48;2.03;;;11.50;99.90;;;;;;5033016;28;20041;-78
2023/10/04 00:57:44;;;;;;;6.18;1.42;;;11.50;99.90;;;;;;5048831;28;20037;-78
2023/10/04 01:00:11;;;;;;;7.75;1.10;;;11.60;99.90;;;;;;5045669;28;20055;-78
2023/10/04 01:02:37;;;;;;;7.13;0.93;;;11.60;99.90;;;;;;5046492;28;20108;-78
2023/10/04 01:05:07;;;;;;;4.75;1.20;;;11.50;99.90;;;;;;5044498;28;20032;-78
2023/10/04 01:07:35;;;;;;;9.57;1.58;;;11.50;99.90;;;;;;5045818;28;20045;-78
2023/10/04 01:10:01;;;;;;;5.03;1.20;;;11.50;99.90;;;;;;5043316;28;20175;-79
2023/10/04 01:12:27;;;;;;;6.85;1.35;;;11.50;99.90;;;;;;5042353;28;20052;-78
2023/10/04 01:14:53;;;;;;;6.85;1.30;;;11.50;99.90;;;;;;5023868;28;20029;-79
2023/10/04 01:17:27;;;;;;;6.25;1.30;;;11.50;99.90;;;;;;5046502;28;20059;-79
2023/10/04 01:19:53;;;;;;;5.50;1.20;;;11.50;99.90;;;;;;5042922;28;20111;-77
2023/10/04 01:22:18;;;;;;;5.10;1.40;;;11.50;99.90;;;;;;5045841;28;20186;-78
2023/10/04 01:24:44;;;;;;;8.50;1.45;;;11.40;99.90;;;;;;5030886;28;20044;-78
2023/10/04 01:27:10;;;;;;;5.57;0.90;;;11.40;99.90;;;;;;5048394;28;20040;-79
2023/10/04 01:29:38;;;;;;;6.95;1.25;;;11.40;99.90;;;;;;5058790;28;20053;-78
2023/10/04 01:32:07;;;;;;;9.30;1.10;;;11.40;99.90;;;;;;5048680;28;20043;-78
2023/10/04 01:34:33;;;;;;;6.20;1.30;;;11.40;99.90;;;;;;5047486;28;20041;-77
2023/10/04 01:36:58;;;;;;;6.38;1.50;;;11.30;99.90;;;;;;5053546;28;20106;-78
2023/10/04 01:39:30;;;;;;;8.10;1.75;;;11.30;99.90;;;;;;5032612;28;20041;-78
2023/10/04 01:41:56;;;;;;;8.20;1.05;;;11.30;99.90;;;;;;5031195;28;20037;-77
2023/10/04 01:44:21;;;;;;;5.85;1.45;;;11.30;99.90;;;;;;5036542;28;20052;-78
2023/10/04 01:46:47;;;;;;;5.20;1.27;;;11.30;99.90;;;;;;5050264;28;20388;-79
2023/10/04 01:49:12;;;;;;;6.85;1.20;;;11.30;99.90;;;;;;5045784;28;20124;-78
2023/10/04 01:51:42;;;;;;;3.72;1.05;;;11.30;99.90;;;;;;5048496;28;20419;-78
2023/10/04 01:54:09;;;;;;;9.30;2.85;;;11.30;99.90;;;;;;5045527;28;20048;-78
2023/10/04 01:56:37;;;;;;;10.43;1.50;;;11.40;99.90;;;;;;5047673;28;20045;-78
2023/10/04 01:59:03;;;;;;;7.85;1.38;;;11.50;99.90;;;;;;5046315;28;20095;-78
2023/10/04 02:01:29;;;;;;;5.90;1.17;;;11.60;99.90;;;;;;5031410;28;20703;-78
2023/10/04 02:03:55;;;;;;;6.70;1.17;;;11.50;99.90;;;;;;5031603;28;20068;-78
2023/10/04 02:06:20;;;;;;;3.70;1.00;;;11.60;99.90;;;;;;5045351;28;20427;-78
2023/10/04 02:08:46;;;;;;;10.85;1.83;;;11.60;99.90;;;;;;5031824;28;20044;-78
2023/10/04 02:11:12;;;;;;;4.13;0.82;;;11.60;99.90;;;;;;5060350;28;20064;-78
2023/10/04 02:13:40;;;;;;;5.88;1.10;;;11.50;99.90;;;;;;5049213;28;20037;-78
2023/10/04 02:16:08;;;;;;;7.22;1.65;;;11.50;99.90;;;;;;5037128;28;20080;-78
2023/10/04 02:18:34;;;;;;;8.60;1.27;;;11.50;99.90;;;;;;5046708;28;20043;-78
2023/10/04 02:21:00;;;;;;;7.20;1.65;;;11.50;99.90;;;;;;5048449;28;20564;-78
2023/10/04 02:23:25;;;;;;;6.47;1.60;;;11.50;99.90;;;;;;5047271;28;20064;-78
2023/10/04 02:25:52;;;;;;;7.07;1.35;;;11.50;99.90;;;;;;5036713;28;20029;-78
2023/10/04 02:28:23;;;;;;;5.53;1.85;;;11.50;99.90;;;;;;5046525;28;20040;-78
2023/10/04 02:30:49;;;;;;;13.50;2.97;;;11.50;99.90;;;;;;5038344;28;20033;-79
2023/10/04 02:33:16;;;;;;;8.77;1.73;;;11.50;99.90;;;;;;5041014;28;20044;-80
2023/10/04 02:35:46;;;;;;;5.78;1.10;;;11.50;99.90;;;;;;5034478;28;20204;-79
2023/10/04 02:38:26;;;;;;;6.35;1.48;;;11.50;99.90;;;;;;5046412;28;20041;-79
2023/10/04 02:40:55;;;;;;;8.90;1.50;;;11.50;99.90;;;;;;5046499;28;20491;-78
2023/10/04 02:43:27;;;;;;;4.45;1.13;;;11.60;99.90;;;;;;5030278;28;20032;-78
2023/10/04 02:45:54;;;;;;;10.05;2.10;;;11.60;99.90;;;;;;5025363;28;20036;-78
2023/10/04 02:48:20;;;;;;;7.53;1.25;;;11.60;99.90;;;;;;5042964;28;20064;-78
2023/10/04 02:50:47;;;;;;;6.40;1.35;;;11.70;99.90;;;;;;5042853;28;20051;-78
2023/10/04 02:53:16;;;;;;;4.13;1.08;;;11.70;99.90;;;;;;5031632;28;20056;-80
2023/10/04 02:55:46;;;;;;;8.55;1.80;;;11.60;99.90;;;;;;5060888;28;20119;-78
2023/10/04 02:58:13;;;;;;;13.90;1.70;;;11.70;99.90;;;;;;5028974;28;20100;-78
2023/10/04 03:00:43;;;;;;;8.50;2.00;;;11.80;99.90;;;;;;5044653;28;20090;-79
2023/10/04 03:03:08;;;;;;;8.77;1.17;;;11.80;99.90;;;;;;5029156;28;20052;-79
2023/10/04 03:05:35;;;;;;;7.28;1.42;;;11.70;99.90;;;;;;5050353;28;20041;-78
2023/10/04 03:08:06;;;;;;;4.55;1.00;;;11.80;99.90;;;;;;5046367;28;20032;-79
2023/10/04 03:10:40;;;;;;;3.38;1.40;;;11.80;99.90;;;;;;5046604;28;20566;-78
2023/10/04 03:13:15;;;;;;;3.40;0.98;;;11.90;99.90;;;;;;5043517;28;20045;-78
2023/10/04 03:15:43;;;;;;;6.10;1.55;;;12.00;99.90;;;;;;5024076;28;20114;-78
2023/10/04 03:18:17;;;;;;;5.53;1.35;;;11.90;99.90;;;;;;5049529;28;20446;-78
2023/10/04 03:20:54;;;;;;;4.50;1.20;;;11.80;99.90;;;;;;5052794;28;20123;-78
2023/10/04 03:23:23;;;;;;;5.50;0.85;;;11.70;99.90;;;;;;5047106;28;20036;-78
2023/10/04 03:25:53;;;;;;;7.90;1.65;;;11.70;99.90;;;;;;5030903;28;20934;-79
2023/10/04 03:28:25;;;;;;;8.43;1.58;;;11.70;99.90;;;;;;5047169;28;20040;-78
2023/10/04 03:30:52;;;;;;;6.38;1.33;;;11.70;99.90;;;;;;5049241;28;20076;-79
2023/10/04 03:33:17;;;;;;;5.20;1.10;;;11.70;99.90;;;;;;5044531;28;20045;-78
2023/10/04 03:35:44;;;;;;;7.57;1.30;;;11.70;99.90;;;;;;5029136;28;20040;-79
2023/10/04 03:38:11;;;;;;;8.25;1.30;;;11.70;99.90;;;;;;5047550;28;20098;-79
2023/10/04 03:40:38;;;;;;;8.77;1.50;;;11.80;99.90;;;;;;5034225;28;20029;-79
2023/10/04 03:43:06;;;;;;;8.48;2.80;;;11.80;99.90;;;;;;5022553;28;20487;-78
2023/10/04 03:45:39;;;;;;;5.53;1.65;;;11.80;99.90;;;;;;5044227;28;20091;-78
2023/10/04 03:48:15;;;;;;;10.38;1.48;;;11.70;99.90;;;;;;5038509;28;20696;-78
2023/10/04 03:50:59;;;;;;;6.57;1.67;;;11.70;99.90;;;;;;5057851;28;20052;-78
2023/10/04 03:53:24;;;;;;;10.48;1.83;;;11.60;99.90;;;;;;5058813;28;20731;-78
2023/10/04 03:55:50;;;;;;;7.38;1.63;;;11.60;99.90;;;;;;5040811;28;20054;-78
2023/10/04 03:58:16;;;;;;;9.02;1.50;;;11.60;99.90;;;;;;5048107;28;20040;-79
2023/10/04 04:00:42;;;;;;;9.07;1.73;;;11.60;99.90;;;;;;5030995;28;20047;-78
2023/10/04 04:03:09;;;;;;;7.85;1.23;;;11.60;99.90;;;;;;5045245;28;20041;-79
2023/10/04 04:05:41;;;;;;;8.57;1.38;;;11.50;99.90;;;;;;5028773;28;20075;-78
2023/10/04 04:08:08;;;;;;;8.05;1.50;;;11.50;99.90;;;;;;5044964;28;20586;-78
2023/10/04 04:10:35;;;;;;;5.93;1.77;;;11.50;99.90;;;;;;5046365;28;20037;-79
2023/10/04 04:13:02;;;;;;;4.40;1.20;;;11.50;99.90;;;;;;5029772;28;20116;-78
2023/10/04 04:15:31;;;;;;;7.55;2.20;;;11.50;99.90;;;;;;5040479;28;20048;-78
2023/10/04 04:17:57;;;;;;;7.82;2.15;;;11.50;99.90;;;;;;5027323;28;20099;-78
2023/10/04 04:20:23;;;;;;;4.53;1.40;;;11.50;99.90;;;;;;5044397;28;20037;-78
2023/10/04 04:22:51;;;;;;;8.88;1.65;;;11.40;99.90;;;;;;5022389;28;20033;-77
2023/10/04 04:25:23;;;;;;;9.43;1.83;;;11.40;99.90;;;;;;5022458;28;20124;-78
2023/10/04 04:27:50;;;;;;;8.02;2.35;;;11.40;99.90;;;;;;5041330;28;20076;-78
2023/10/04 04:30:20;;;;;;;11.20;2.10;;;11.40;99.90;;;;;;5044004;28;20511;-79
2023/10/04 04:32:52;;;;;;;6.10;1.35;;;11.40;99.90;;;;;;5033174;28;20036;-78
2023/10/04 04:36:09;;;;;;;2.83;1.38;;;11.40;99.90;;;;;;5060768;28;20067;-79
2023/10/04 04:38:17;;;;;;;9.48;1.83;;;11.30;99.90;;;;;;5036712;28;20038;-78
2023/10/04 04:40:48;;;;;;;9.32;2.53;;;11.30;99.90;;;;;;5028812;28;20048;-79
2023/10/04 04:45:51;;;;;;;10.93;1.50;;;11.20;99.90;;;;;;5037743;28;20102;-79
2023/10/04 04:48:25;;;;;;;6.72;1.50;;;11.30;99.90;;;;;;5058192;28;20033;-78
2023/10/04 04:50:53;;;;;;;5.53;1.60;;;11.20;99.90;;;;;;5045344;28;20045;-78
2023/10/04 04:53:22;;;;;;;9.85;1.50;;;11.20;99.90;;;;;;5028250;28;20045;-79
2023/10/04 04:55:51;;;;;;;5.65;1.30;;;11.20;99.90;;;;;;5029722;28;20036;-78
2023/10/04 04:58:22;;;;;;;6.18;1.58;;;11.20;99.90;;;;;;5045642;28;20049;-78
2023/10/04 05:00:50;;;;;;;10.45;1.95;;;11.20;99.90;;;;;;5030870;28;20033;-77
2023/10/04 05:03:17;;;;;;;11.30;1.75;;;11.10;99.90;;;;;;5062554;28;20036;-78
2023/10/04 05:05:42;;;;;;;4.60;1.45;;;11.20;99.90;;;;;;5054021;28;20041;-78
2023/10/04 05:08:08;;;;;;;11.38;1.98;;;11.20;99.90;;;;;;5033041;28;20041;-79
2023/10/04 05:10:38;;;;;;;8.60;1.58;;;11.10;99.90;;;;;;5047145;28;20499;-78
2023/10/04 05:13:09;;;;;;;6.72;1.83;;;11.20;99.90;;;;;;5035522;28;20057;-77
2023/10/04 05:15:38;;;;;;;7.75;1.70;;;11.20;99.90;;;;;;5054330;28;20043;-78
2023/10/04 05:18:04;;;;;;;8.10;1.95;;;11.20;99.90;;;;;;5043450;28;20496;-78
2023/10/04 05:20:31;;;;;;;5.18;1.55;;;11.20;99.90;;;;;;5049909;28;20063;-78
2023/10/04 05:23:01;;;;;;;7.63;1.50;;;11.20;99.90;;;;;;5040987;28;20033;-78
2023/10/04 05:25:30;;;;;;;10.35;2.00;;;11.30;99.90;;;;;;5027151;28;20029;-78
2023/10/04 05:28:09;;;;;;;6.93;1.60;;;11.30;99.90;;;;;;5046219;28;20049;-78
2023/10/04 05:30:37;;;;;;;3.92;1.45;;;11.30;99.90;;;;;;5041046;28;20041;-78
2023/10/04 05:33:03;;;;;;;6.72;1.95;;;11.30;99.90;;;;;;5028265;28;20383;-78
2023/10/04 05:35:29;;;;;;;6.38;1.98;;;11.40;99.90;;;;;;5028175;28;20037;-77
2023/10/04 05:37:54;;;;;;;11.18;2.35;;;11.50;99.90;;;;;;5035863;28;20154;-79
2023/10/04 05:40:25;;;;;;;7.07;1.63;;;11.50;99.90;;;;;;5032656;28;20041;-78
2023/10/04 05:42:53;;;;;;;7.38;2.28;;;11.50;99.90;;;;;;5030944;28;20091;-78
2023/10/04 05:45:23;;;;;;;11.38;2.30;;;11.40;99.90;;;;;;5030224;28;21466;-79
2023/10/04 05:47:50;;;;;;;7.90;1.80;;;11.30;99.90;;;;;;5032382;28;20123;-78
2023/10/04 05:50:26;;;;;;;6.80;1.58;;;11.40;99.90;;;;;;5047673;28;20056;-79
2023/10/04 05:52:53;;;;;;;6.05;2.00;;;11.30;99.90;;;;;;5043778;28;20526;-79
2023/10/04 05:55:20;;;;;;;10.38;2.00;;;11.30;99.90;;;;;;5031815;28;20091;-79
2023/10/04 05:57:48;;;;;;;8.50;3.10;;;11.40;99.90;;;;;;5033189;28;20063;-78
2023/10/04 06:00:25;;;;;;;7.10;2.28;;;11.50;99.90;;;;;;5040777;28;20059;-79
2023/10/04 06:03:04;;;;;;;7.50;1.65;;;11.60;99.90;;;;;;5040844;28;20033;-78
2023/10/04 06:05:33;;;;;;;9.10;1.90;;;11.60;99.90;;;;;;5040883;28;20801;-79
2023/10/04 06:08:05;;;;;;;12.13;2.15;;;11.60;99.90;;;;;;5049062;28;20055;-79
2023/10/04 06:10:31;;;;;;;11.13;2.13;;;11.50;99.90;;;;;;5048796;28;20517;-79
2023/10/04 06:12:57;;;;;;;8.75;1.95;;;11.60;99.90;;;;;;5048796;28;20029;-79
2023/10/04 06:15:24;;;;;;;7.15;1.65;;;11.50;99.90;;;;;;5044677;28;20098;-78
2023/10/04 06:17:51;;;;;;;9.20;2.10;;;11.60;99.90;;;;;;5047493;28;20036;-78
2023/10/04 06:20:27;;;;;;;7.05;2.00;;;11.60;99.90;;;;;;5032829;28;20083;-79
2023/10/04 06:22:59;;;;;;;6.15;1.85;;;11.70;99.90;;;;;;5046227;28;20033;-79
2023/10/04 06:25:27;;;;;;;5.35;1.83;;;11.80;99.90;;;;;;5031835;28;20476;-78
2023/10/04 06:27:54;;;;;;;8.90;3.00;;;11.90;99.90;;;;;;5043796;28;20041;-79
2023/10/04 06:30:28;;;;;;;8.80;2.58;;;11.90;99.90;;;;;;5061474;28;20059;-79
2023/10/04 06:32:56;;;;;;;7.20;1.83;;;11.90;99.90;;;;;;5032245;28;20029;-80
2023/10/04 06:35:23;;;;;;;8.25;1.85;;;12.00;99.90;;;;;;5023796;28;20048;-80
2023/10/04 06:38:01;;;;;;;10.55;2.17;;;12.00;99.90;;;;;;5045183;28;20033;-81
2023/10/04 06:40:31;;;;;;;7.65;1.92;;;12.00;99.90;;;;;;5061927;28;20551;-79
2023/10/04 06:42:58;;;;;;;10.88;2.03;;;12.10;99.90;;;;;;5032597;28;20503;-79
2023/10/04 06:45:24;;;;;;;5.70;2.22;;;12.30;99.90;;;;;;5046281;28;20037;-79
2023/10/04 06:47:53;;;;;;;6.15;1.60;;;12.40;99.90;;;;;;5055713;28;20114;-79
2023/10/04 06:50:20;;;;;;;7.50;2.30;;;12.50;99.90;;;;;;5047446;28;20143;-79
2023/10/04 06:52:51;;;;;;;6.97;1.90;;;12.50;99.90;;;;;;5031006;28;20144;-79
2023/10/04 06:55:18;;;;;;;9.95;2.03;;;12.60;99.90;;;;;;5035084;28;20125;-79
2023/10/04 06:57:45;;;;;;;10.85;2.15;;;12.60;99.90;;;;;;5024645;28;20040;-80
2023/10/04 07:00:16;;;;;;;12.40;2.50;;;12.60;99.90;;;;;;5029488;28;20037;-79
2023/10/04 07:02:45;;;;;;;11.07;2.72;;;12.60;99.90;;;;;;5045878;28;20063;-79
2023/10/04 07:05:16;;;;;;;4.95;1.45;;;12.60;99.90;;;;;;5059725;28;20124;-79
2023/10/04 07:07:43;;;;;;;6.95;1.70;;;12.60;99.90;;;;;;5035799;28;20111;-79
2023/10/04 07:10:09;;;;;;;6.82;1.90;;;12.70;99.90;;;;;;5034271;28;20490;-79
2023/10/04 07:12:35;;;;;;;9.48;2.17;;;12.90;99.90;;;;;;5033799;28;20039;-79
2023/10/04 07:15:03;;;;;;;9.75;3.20;;;12.90;99.90;;;;;;5041064;28;20037;-80
2023/10/04 07:17:31;;;;;;;6.72;1.70;;;13.00;99.90;;;;;;5050012;28;20044;-80
2023/10/04 07:20:00;;;;;;;9.43;2.25;;;13.10;99.90;;;;;;5023661;28;20116;-79
2023/10/04 07:22:32;;;;;;;11.10;2.70;;;13.00;99.90;;;;;;5031152;28;20041;-80
2023/10/04 07:24:58;;;;;;;8.45;2.08;;;13.00;99.90;;;;;;5033168;28;20033;-79
2023/10/04 07:27:24;;;;;;;9.25;2.28;;;12.90;99.90;;;;;;5031826;28;20029;-79
2023/10/04 07:29:50;;;;;;;6.65;2.33;;;12.90;99.90;;;;;;5046716;28;20082;-80
2023/10/04 07:32:16;;;;;;;12.80;2.95;;;13.00;99.90;;;;;;5044052;28;20041;-79
2023/10/04 07:34:42;;;;;;;6.38;1.88;;;13.00;99.90;;;;;;5046140;28;20045;-80
2023/10/04 07:37:08;;;;;;;9.55;2.22;;;13.10;99.90;;;;;;5031042;28;20037;-79
2023/10/04 07:39:35;;;;;;;8.68;2.45;;;13.30;99.90;;;;;;5044853;28;20037;-79
2023/10/04 07:42:02;;;;;;;8.15;2.00;;;13.50;99.90;;;;;;5026152;28;20106;-79
2023/10/04 07:44:30;;;;;;;10.88;2.53;;;13.50;99.90;;;;;;5039475;28;20490;-79
2023/10/04 07:46:59;;;;;;;7.35;1.70;;;13.70;99.90;;;;;;5043627;28;20044;-79
2023/10/04 07:49:25;;;;;;;17.67;2.83;;;13.80;99.90;;;;;;5046946;28;20099;-80
2023/10/04 07:51:52;;;;;;;7.80;2.03;;;13.90;99.90;;;;;;5029967;28;20053;-79
2023/10/04 07:54:18;;;;;;;9.77;2.30;;;13.90;99.90;;;;;;5030532;28;20048;-79
2023/10/04 07:56:55;;;;;;;10.65;2.00;;;13.90;99.90;;;;;;5029607;28;20561;-80
2023/10/04 07:59:20;;;;;;;6.97;1.95;;;13.90;99.90;;;;;;5029885;28;20102;-80
2023/10/04 08:01:46;;;;;;;6.95;2.08;;;13.90;99.90;;;;;;5030108;28;20037;-80
2023/10/04 08:04:12;;;;;;;7.22;2.38;;;13.90;99.90;;;;;;5047477;28;20036;-80
2023/10/04 08:06:40;;;;;;;11.40;2.53;;;14.00;99.90;;;;;;5041962;28;20055;-81
2023/10/04 08:09:06;;;;;;;5.95;2.13;;;14.10;99.90;;;;;;5052941;28;20052;-81
2023/10/04 08:11:35;;;;;;;9.02;2.20;;;14.10;99.90;;;;;;5044242;28;20446;-80
2023/10/04 08:14:07;;;;;;;8.55;2.10;;;14.30;99.90;;;;;;5040111;28;20683;-81
2023/10/04 08:16:36;;;;;;;8.90;2.40;;;14.30;99.90;;;;;;5056622;28;20036;-82
2023/10/04 08:19:04;;;;;;;5.15;1.95;;;14.40;99.90;;;;;;5027595;28;20048;-82
2023/10/04 08:21:30;;;;;;;6.80;1.92;;;14.40;99.90;;;;;;5029174;28;20383;-81
2023/10/04 08:23:57;;;;;;;11.98;2.30;;;14.50;99.90;;;;;;5027904;28;20041;-81
2023/10/04 08:26:23;;;;;;;8.93;2.05;;;14.50;99.90;;;;;;5025528;28;20455;-82
2023/10/04 08:28:49;;;;;;;9.07;2.40;;;14.70;99.90;;;;;;5040298;28;20045;-82
2023/10/04 08:31:16;;;;;;;11.25;2.13;;;15.00;99.90;;;;;;5044767;28;20805;-82
2023/10/04 08:33:43;;;;;;;9.10;2.20;;;15.30;99.90;;;;;;5032904;28;20040;-83
2023/10/04 08:36:18;;;;;;;8.68;2.80;;;15.50;99.90;;;;;;5049840;28;20033;-81
2023/10/04 08:38:46;;;;;;;7.15;2.15;;;15.60;60.80;;;;;;5050628;28;20076;-82
2023/10/04 08:41:12;;;;;;;6.47;1.90;;;15.50;36.10;;;;;;5047174;28;20049;-82
2023/10/04 08:43:38;;;;;;;9.80;1.92;;;15.50;31.30;;;;;;5033462;28;20060;-82
2023/10/04 08:46:07;;;;;;;7.90;2.40;;;15.30;42.20;;;;;;5033864;28;20038;-82
2023/10/04 08:48:33;;;;;;;6.88;2.20;;;15.20;57.70;;;;;;5048804;28;20487;-81
2023/10/04 08:51:52;;;;;;;10.48;2.47;;;15.20;61.60;;;;;;5028083;28;20064;-82
2023/10/04 08:54:21;;;;;;;6.88;1.90;;;15.20;1.00;;;;;;4988147;28;20085;-82
2023/10/04 08:57:03;;;;;;;8.38;2.20;;;15.20;1.00;;;;;;4970981;28;20049;-82
2023/10/04 08:59:31;;;;;;;7.20;1.95;;;15.20;2.70;;;;;;5028033;28;20061;-82
2023/10/04 09:01:59;;;;;;;5.63;2.38;;;15.30;1.00;;;;;;5045452;28;20048;-82
2023/10/04 09:04:26;;;;;;;6.57;2.28;;;15.30;1.00;;;;;;5047936;28;20044;-82
2023/10/04 09:06:52;;;;;;;6.78;2.00;;;15.40;1.00;;;;;;5031745;28;20051;-82
2023/10/04 09:09:19;;;;;;;6.20;1.83;;;15.50;1.00;;;;;;5031847;28;20487;-81
2023/10/04 09:11:45;;;;;;;6.43;2.15;;;15.50;7.40;;;;;;5031242;28;20810;-81
2023/10/04 09:14:15;;;;;;;9.70;2.42;;;15.60;11.20;;;;;;5045319;28;20037;-82
2023/10/04 09:16:40;;;;;;;9.77;1.95;;;15.80;1.00;;;;;;5032532;28;20037;-83
2023/10/04 09:19:17;;;;;;;7.18;2.47;;;15.80;1.00;;;;;;5052664;28;20384;-82
2023/10/04 09:21:43;;;;;;;13.85;2.72;;;15.90;1.00;;;;;;5032538;28;20112;-82
2023/10/04 09:24:14;;;;;;;8.02;2.45;;;16.00;1.00;;;;;;5030825;28;20083;-81
2023/10/04 09:27:01;;;;;;;10.80;2.40;;;16.10;1.00;;;;;;5046281;28;20080;-82
2023/10/04 09:29:31;;;;;;;7.63;2.10;;;16.30;1.00;;;;;;5029458;28;20041;-82
2023/10/04 09:31:57;;;;;;;9.68;2.72;;;16.30;1.00;;;;;;5044282;28;20098;-82
2023/10/04 09:34:23;;;;;;;8.65;2.08;;;16.40;1.00;;;;;;5026961;28;20045;-82
2023/10/04 09:36:51;;;;;;;6.97;2.33;;;16.50;1.00;;;;;;5047037;28;20041;-82
2023/10/04 09:39:23;;;;;;;6.68;2.40;;;16.60;1.00;;;;;;5033488;28;20072;-82
2023/10/04 09:41:50;;;;;;;9.45;2.25;;;16.80;1.00;;;;;;5049012;28;20032;-82
2023/10/04 09:44:30;;;;;;;10.32;2.25;;;17.10;1.00;;;;;;5031572;28;20048;-82
2023/10/04 09:46:59;;;;;;;5.60;1.85;;;17.50;1.00;;;;;;5037102;28;20120;-82
2023/10/04 09:49:28;;;;;;;9.15;2.78;;;17.70;1.00;;;;;;5038618;28;20127;-82
2023/10/04 09:51:55;;;;;;;6.10;2.28;;;17.80;99.90;;;;;;5050142;28;20053;-81
2023/10/04 09:54:22;;;;;;;7.25;2.00;;;17.80;99.90;;;;;;5055582;28;20659;-80
2023/10/04 09:56:49;;;;;;;8.20;2.60;;;17.70;99.90;;;;;;5048988;28;20045;-80
2023/10/04 09:59:20;;;;;;;8.80;2.10;;;17.70;66.80;;;;;;5046482;28;20545;-81
2023/10/04 10:01:56;;;;;;;10.23;1.92;;;17.80;1.00;;;;;;5048757;28;20040;-82
2023/10/04 10:04:27;;;;;;;9.75;2.67;;;18.00;99.90;;;;;;5062086;28;20037;-81
2023/10/04 10:07:18;;;;;;;10.43;2.35;;;18.10;1.00;;;;;;5031870;28;20045;-80
2023/10/04 10:10:01;;;;;;;10.27;2.13;;;18.40;1.00;;;;;;5030895;28;20045;-81
2023/10/04 10:12:31;;;;;;;7.80;1.60;;;18.50;1.00;;;;;;5047958;28;20142;-81
2023/10/04 10:15:01;;;;;;;8.10;2.25;;;18.60;1.00;;;;;;5044717;28;20511;-81
2023/10/04 10:17:28;;;;;;;6.45;2.15;;;18.70;1.00;;;;;;5047201;28;20040;-81
2023/10/04 10:19:55;;;;;;;7.88;2.13;;;18.60;1.00;;;;;;5030713;28;20044;-81
2023/10/04 10:22:21;;;;;;;10.93;2.33;;;18.50;99.90;;;;;;5044976;28;20041;-82
2023/10/04 10:24:55;;;;;;;8.25;2.25;;;18.30;99.90;;;;;;5031721;28;20392;-80
2023/10/04 10:27:23;;;;;;;10.02;2.08;;;18.20;99.90;;;;;;5030436;28;20400;-82
2023/10/04 10:29:51;;;;;;;9.35;2.55;;;18.10;1.00;;;;;;5037937;28;21560;-82
2023/10/04 10:32:20;;;;;;;8.25;1.90;;;17.90;99.90;;;;;;5034279;28;20494;-81
2023/10/04 10:34:51;;;;;;;5.38;2.25;;;17.80;99.90;;;;;;5026901;28;20445;-81
2023/10/04 10:37:24;;;;;;;8.70;2.42;;;17.70;99.90;;;;;;5051639;28;20037;-81
2023/10/04 10:39:52;;;;;;;7.18;2.90;;;17.70;99.90;;;;;;5046556;28;20396;-82
2023/10/04 10:42:19;;;;;;;8.48;2.65;;;17.50;99.90;;;;;;5031698;28;20171;-81
2023/10/04 10:44:45;;;;;;;6.53;2.40;;;17.50;99.90;;;;;;5030590;28;20041;-81
2023/10/04 10:47:15;;;;;;;5.25;2.22;;;17.40;99.90;;;;;;5021891;28;20033;-81
2023/10/04 10:49:41;;;;;;;10.82;2.13;;;17.40;99.90;;;;;;5045824;28;20037;-81
2023/10/04 10:52:27;;;;;;;6.88;2.13;;;17.40;99.90;;;;;;5029278;28;20105;-82
2023/10/04 10:54:55;;;;;;;5.67;1.87;;;17.50;99.90;;;;;;5047418;28;20105;-81
2023/10/04 10:57:23;;;;;;;6.18;2.22;;;17.50;99.90;;;;;;5031606;28;20299;-81
2023/10/04 11:00:03;;;;;;;8.95;2.63;;;17.60;99.90;;;;;;5030432;28;20103;-81
2023/10/04 11:02:28;;;;;;;9.80;2.83;;;17.70;99.90;;;;;;5029188;28;20514;-82
2023/10/04 11:04:55;;;;;;;6.82;2.60;;;17.80;99.90;;;;;;5047987;28;20246;-82
2023/10/04 11:07:22;;;;;;;13.25;2.47;;;17.80;99.90;;;;;;5043525;28;20150;-82
2023/10/04 11:09:49;;;;;;;7.97;2.33;;;17.70;99.90;;;;;;5030509;28;20041;-81
2023/10/04 11:12:17;;;;;;;6.55;2.40;;;17.70;99.90;;;;;;5041891;28;20084;-82
2023/10/04 11:14:43;;;;;;;10.80;3.50;;;17.60;99.90;;;;;;5030676;28;20041;-82
2023/10/04 11:17:10;;;;;;;10.60;2.40;;;17.50;99.90;;;;;;5029642;28;20454;-82
2023/10/04 11:19:36;;;;;;;7.78;2.33;;;17.50;99.90;;;;;;5030720;28;20128;-81
2023/10/04 11:22:03;;;;;;;8.25;2.40;;;17.50;99.90;;;;;;5046323;28;20040;-82
2023/10/04 11:24:29;;;;;;;13.00;2.63;;;17.30;99.90;;;;;;5047935;28;20106;-82
2023/10/04 11:26:56;;;;;;;9.02;2.08;;;17.20;99.90;;;;;;5030306;28;20548;-82
2023/10/04 11:29:27;;;;;;;7.55;2.55;;;17.30;99.90;;;;;;5029188;28;20434;-83
2023/10/04 11:31:56;;;;;;;9.10;2.30;;;17.30;99.90;;;;;;5045938;28;20079;-81
2023/10/04 11:34:21;;;;;;;10.00;2.55;;;17.50;99.90;;;;;;5047415;28;20068;-82
2023/10/04 11:36:50;;;;;;;8.88;2.83;;;17.60;99.90;;;;;;5030695;28;20095;-82
2023/10/04 11:39:21;;;;;;;7.28;2.67;;;17.70;99.90;;;;;;5046745;28;20061;-82
2023/10/04 11:41:50;;;;;;;6.93;2.80;;;17.80;99.90;;;;;;5039552;28;20040;-81
2023/10/04 11:44:18;;;;;;;7.68;2.60;;;17.80;99.90;;;;;;5024653;28;20361;-81
2023/10/04 11:47:03;;;;;;;7.20;2.35;;;17.90;99.90;;;;;;5060500;28;20033;-81
2023/10/04 11:49:32;;;;;;;7.78;2.38;;;17.90;99.90;;;;;;5063049;28;20037;-82
2023/10/04 11:52:00;;;;;;;7.50;2.50;;;17.90;99.90;;;;;;5045556;28;20053;-81
2023/10/04 11:54:44;;;;;;;8.65;2.97;;;17.90;99.90;;;;;;5029508;28;21002;-82
2023/10/04 11:57:11;;;;;;;9.00;2.63;;;17.90;99.90;;;;;;5039622;28;20033;-81
2023/10/04 11:59:37;;;;;;;6.57;2.15;;;17.90;99.90;;;;;;5046806;28;20045;-82
2023/10/04 12:02:04;;;;;;;9.13;2.92;;;18.00;99.90;;;;;;5046433;28;20041;-82
2023/10/04 12:04:32;;;;;;;7.50;2.47;;;18.10;99.90;;;;;;5045471;28;20091;-82
2023/10/04 12:07:04;;;;;;;7.40;2.05;;;18.10;99.90;;;;;;5046736;28;20041;-82
2023/10/04 12:09:36;;;;;;;7.47;2.00;;;18.20;99.90;;;;;;5045705;28;20049;-82
2023/10/04 12:12:05;;;;;;;5.47;1.85;;;18.20;99.90;;;;;;5026475;28;20049;-80
2023/10/04 12:14:31;;;;;;;11.15;2.60;;;18.10;99.90;;;;;;5043603;28;20083;-81
2023/10/04 12:17:04;;;;;;;6.32;2.20;;;18.10;99.90;;;;;;5030269;28;20069;-81
2023/10/04 12:19:31;;;;;;;6.20;1.77;;;18.00;99.90;;;;;;5029096;28;20041;-81
2023/10/04 12:21:59;;;;;;;7.85;2.50;;;17.90;99.90;;;;;;5037468;28;20127;-81
2023/10/04 12:24:30;;;;;;;11.35;3.00;;;17.80;99.90;;;;;;5054950;28;20044;-81
2023/10/04 12:26:58;;;;;;;10.43;2.83;;;17.80;99.90;;;;;;5028730;28;20053;-82
2023/10/04 12:29:24;;;;;;;8.20;1.85;;;17.60;99.90;;;;;;5047119;28;20040;-82
2023/10/04 12:31:50;;;;;;;10.55;2.15;;;17.50;99.90;;;;;;5043713;28;20041;-81
2023/10/04 12:34:16;;;;;;;5.75;1.90;;;17.60;99.90;;;;;;5027326;28;20388;-82
2023/10/04 12:36:41;;;;;;;9.63;2.25;;;17.70;99.90;;;;;;5055301;28;20492;-81
2023/10/04 12:39:07;;;;;;;9.18;2.20;;;17.90;99.90;;;;;;5045655;28;20045;-82
2023/10/04 12:41:33;;;;;;;11.52;2.90;;;18.10;99.90;;;;;;5029120;28;20448;-81
2023/10/04 12:43:59;;;;;;;7.25;2.25;;;18.40;99.90;;;;;;5040455;28;20033;-81
2023/10/04 12:46:26;;;;;;;7.65;2.75;;;18.60;99.90;;;;;;5030508;28;20047;-81
2023/10/04 12:48:53;;;;;;;9.18;2.97;;;18.60;99.90;;;;;;5038877;28;20446;-81
2023/10/04 12:51:18;;;;;;;8.27;2.75;;;18.60;99.90;;;;;;5043649;28;20045;-81
2023/10/04 12:53:45;;;;;;;9.98;2.55;;;18.60;99.90;;;;;;5038875;28;20653;-81
2023/10/04 12:56:11;;;;;;;10.13;2.35;;;18.60;99.90;;;;;;5047339;28;20036;-81